sensor_id;sensor_type;location;lat;lon;timestamp;P1;durP1;ratioP1;P2;durP2;ratioP2
69569;SDS011;56781;42.292;23.146;2023-02-02T00:01:47;52.03;;;20.67;;
69569;SDS011;56781;42.292;23.146;2023-02-02T00:04:28;95.72;;;29.67;;
69569;SDS011;56781;42.292;23.146;2023-02-02T00:07:02;61.10;;;21.87;;
69569;SDS011;56781;42.292;23.146;2023-02-02T00:09:31;69.25;;;24.92;;
69569;SDS011;56781;42.292;23.146;2023-02-02T00:11:58;111.22;;;35.08;;
69569;SDS011;56781;42.292;23.146;2023-02-02T00:14:27;50.65;;;19.38;;
69569;SDS011;56781;42.292;23.146;2023-02-02T00:16:55;44.53;;;17.70;;
69569;SDS011;56781;42.292;23.146;2023-02-02T00:19:24;44.40;;;16.70;;
69569;SDS011;56781;42.292;23.146;2023-02-02T00:21:53;43.20;;;17.48;;
69569;SDS011;56781;42.292;23.146;2023-02-02T00:24:21;113.38;;;28.67;;
69569;SDS011;56781;42.292;23.146;2023-02-02T00:26:50;143.27;;;35.30;;
69569;SDS011;56781;42.292;23.146;2023-02-02T00:29:20;96.10;;;28.20;;
69569;SDS011;56781;42.292;23.146;2023-02-02T00:31:49;91.87;;;25.57;;
69569;SDS011;56781;42.292;23.146;2023-02-02T00:34:17;37.22;;;15.18;;
69569;SDS011;56781;42.292;23.146;2023-02-02T00:36:45;34.42;;;15.48;;
69569;SDS011;56781;42.292;23.146;2023-02-02T00:39:14;141.18;;;36.13;;
69569;SDS011;56781;42.292;23.146;2023-02-02T00:41:44;74.45;;;23.38;;
69569;SDS011;56781;42.292;23.146;2023-02-02T00:44:12;44.63;;;17.40;;
69569;SDS011;56781;42.292;23.146;2023-02-02T00:46:57;85.47;;;26.40;;
69569;SDS011;56781;42.292;23.146;2023-02-02T00:49:24;43.97;;;16.58;;
69569;SDS011;56781;42.292;23.146;2023-02-02T00:51:52;36.10;;;15.60;;
69569;SDS011;56781;42.292;23.146;2023-02-02T00:54:19;38.38;;;15.80;;
69569;SDS011;56781;42.292;23.146;2023-02-02T00:56:46;39.23;;;15.00;;
69569;SDS011;56781;42.292;23.146;2023-02-02T00:59:14;63.17;;;19.92;;
69569;SDS011;56781;42.292;23.146;2023-02-02T01:01:41;42.30;;;15.77;;
69569;SDS011;56781;42.292;23.146;2023-02-02T01:04:08;44.78;;;18.02;;
69569;SDS011;56781;42.292;23.146;2023-02-02T01:06:35;64.65;;;24.95;;
69569;SDS011;56781;42.292;23.146;2023-02-02T01:09:02;67.07;;;25.50;;
69569;SDS011;56781;42.292;23.146;2023-02-02T01:11:30;70.03;;;27.10;;
69569;SDS011;56781;42.292;23.146;2023-02-02T01:13:57;71.60;;;25.65;;
69569;SDS011;56781;42.292;23.146;2023-02-02T01:16:24;56.38;;;21.88;;
69569;SDS011;56781;42.292;23.146;2023-02-02T01:18:51;50.92;;;19.38;;
69569;SDS011;56781;42.292;23.146;2023-02-02T01:21:19;49.13;;;19.37;;
69569;SDS011;56781;42.292;23.146;2023-02-02T01:23:46;43.33;;;17.95;;
69569;SDS011;56781;42.292;23.146;2023-02-02T01:26:14;57.47;;;20.33;;
69569;SDS011;56781;42.292;23.146;2023-02-02T01:28:42;82.82;;;27.55;;
69569;SDS011;56781;42.292;23.146;2023-02-02T01:31:12;66.28;;;24.27;;
69569;SDS011;56781;42.292;23.146;2023-02-02T01:33:41;55.37;;;19.73;;
69569;SDS011;56781;42.292;23.146;2023-02-02T01:36:10;43.83;;;17.70;;
69569;SDS011;56781;42.292;23.146;2023-02-02T01:38:40;41.88;;;17.35;;
69569;SDS011;56781;42.292;23.146;2023-02-02T01:41:09;45.10;;;18.98;;
69569;SDS011;56781;42.292;23.146;2023-02-02T01:46:14;51.90;;;19.87;;
69569;SDS011;56781;42.292;23.146;2023-02-02T01:49:05;49.63;;;19.13;;
69569;SDS011;56781;42.292;23.146;2023-02-02T01:51:40;49.45;;;19.52;;
69569;SDS011;56781;42.292;23.146;2023-02-02T01:54:13;52.05;;;20.38;;
69569;SDS011;56781;42.292;23.146;2023-02-02T01:56:48;55.88;;;21.73;;
69569;SDS011;56781;42.292;23.146;2023-02-02T01:59:19;51.50;;;23.53;;
69569;SDS011;56781;42.292;23.146;2023-02-02T02:01:46;43.00;;;19.85;;
69569;SDS011;56781;42.292;23.146;2023-02-02T02:04:15;56.00;;;19.95;;
69569;SDS011;56781;42.292;23.146;2023-02-02T02:06:43;30.52;;;13.35;;
69569;SDS011;56781;42.292;23.146;2023-02-02T02:09:10;65.95;;;16.42;;
69569;SDS011;56781;42.292;23.146;2023-02-02T02:11:38;90.13;;;21.90;;
69569;SDS011;56781;42.292;23.146;2023-02-02T02:14:06;88.30;;;21.15;;
69569;SDS011;56781;42.292;23.146;2023-02-02T02:29:18;32.67;;;10.90;;
69569;SDS011;56781;42.292;23.146;2023-02-02T02:38:04;73.30;;;20.60;;
69569;SDS011;56781;42.292;23.146;2023-02-02T02:43:05;74.15;;;18.55;;
69569;SDS011;56781;42.292;23.146;2023-02-02T02:45:38;30.92;;;10.75;;
69569;SDS011;56781;42.292;23.146;2023-02-02T02:48:07;28.58;;;11.30;;
69569;SDS011;56781;42.292;23.146;2023-02-02T02:50:36;23.70;;;9.90;;
69569;SDS011;56781;42.292;23.146;2023-02-02T02:53:05;35.83;;;12.10;;
69569;SDS011;56781;42.292;23.146;2023-02-02T02:55:45;24.30;;;10.88;;
69569;SDS011;56781;42.292;23.146;2023-02-02T03:01:24;25.13;;;8.90;;
69569;SDS011;56781;42.292;23.146;2023-02-02T03:04:04;25.50;;;10.18;;
69569;SDS011;56781;42.292;23.146;2023-02-02T03:06:47;22.93;;;9.50;;
69569;SDS011;56781;42.292;23.146;2023-02-02T03:09:22;22.15;;;8.60;;
69569;SDS011;56781;42.292;23.146;2023-02-02T03:11:58;24.75;;;10.63;;
69569;SDS011;56781;42.292;23.146;2023-02-02T03:14:25;37.70;;;11.68;;
69569;SDS011;56781;42.292;23.146;2023-02-02T03:16:53;97.10;;;23.95;;
69569;SDS011;56781;42.292;23.146;2023-02-02T03:19:20;95.00;;;26.63;;
69569;SDS011;56781;42.292;23.146;2023-02-02T03:21:47;91.35;;;26.85;;
69569;SDS011;56781;42.292;23.146;2023-02-02T03:24:14;33.38;;;11.48;;
69569;SDS011;56781;42.292;23.146;2023-02-02T03:26:41;28.25;;;9.77;;
69569;SDS011;56781;42.292;23.146;2023-02-02T03:29:09;23.30;;;9.50;;
69569;SDS011;56781;42.292;23.146;2023-02-02T03:31:36;23.57;;;9.60;;
69569;SDS011;56781;42.292;23.146;2023-02-02T03:34:03;31.85;;;11.88;;
69569;SDS011;56781;42.292;23.146;2023-02-02T03:36:30;33.13;;;10.88;;
69569;SDS011;56781;42.292;23.146;2023-02-02T03:38:58;19.77;;;8.25;;
69569;SDS011;56781;42.292;23.146;2023-02-02T03:41:25;30.27;;;12.00;;
69569;SDS011;56781;42.292;23.146;2023-02-02T03:43:52;30.90;;;10.83;;
69569;SDS011;56781;42.292;23.146;2023-02-02T03:46:19;19.98;;;8.60;;
69569;SDS011;56781;42.292;23.146;2023-02-02T03:48:46;17.02;;;6.65;;
69569;SDS011;56781;42.292;23.146;2023-02-02T03:51:14;14.57;;;5.90;;
69569;SDS011;56781;42.292;23.146;2023-02-02T03:53:41;14.10;;;5.45;;
69569;SDS011;56781;42.292;23.146;2023-02-02T03:56:17;15.70;;;6.30;;
69569;SDS011;56781;42.292;23.146;2023-02-02T03:58:44;15.90;;;5.85;;
69569;SDS011;56781;42.292;23.146;2023-02-02T04:01:12;13.10;;;6.10;;
69569;SDS011;56781;42.292;23.146;2023-02-02T04:03:40;24.80;;;9.52;;
69569;SDS011;56781;42.292;23.146;2023-02-02T04:06:08;20.80;;;7.97;;
69569;SDS011;56781;42.292;23.146;2023-02-02T04:08:35;18.53;;;6.63;;
69569;SDS011;56781;42.292;23.146;2023-02-02T04:11:02;16.42;;;6.53;;
69569;SDS011;56781;42.292;23.146;2023-02-02T04:13:29;17.38;;;6.43;;
69569;SDS011;56781;42.292;23.146;2023-02-02T04:16:00;17.75;;;6.63;;
69569;SDS011;56781;42.292;23.146;2023-02-02T04:18:27;16.73;;;7.28;;
69569;SDS011;56781;42.292;23.146;2023-02-02T04:20:55;16.73;;;6.30;;
69569;SDS011;56781;42.292;23.146;2023-02-02T04:23:24;19.63;;;7.85;;
69569;SDS011;56781;42.292;23.146;2023-02-02T04:25:52;19.33;;;7.68;;
69569;SDS011;56781;42.292;23.146;2023-02-02T04:28:19;67.85;;;21.52;;
69569;SDS011;56781;42.292;23.146;2023-02-02T04:30:48;283.33;;;75.88;;
69569;SDS011;56781;42.292;23.146;2023-02-02T04:33:16;243.70;;;76.20;;
69569;SDS011;56781;42.292;23.146;2023-02-02T04:35:44;98.57;;;32.03;;
69569;SDS011;56781;42.292;23.146;2023-02-02T04:38:11;46.45;;;16.55;;
69569;SDS011;56781;42.292;23.146;2023-02-02T04:40:42;27.25;;;10.80;;
69569;SDS011;56781;42.292;23.146;2023-02-02T04:43:11;24.42;;;9.32;;
69569;SDS011;56781;42.292;23.146;2023-02-02T04:45:39;21.90;;;8.83;;
69569;SDS011;56781;42.292;23.146;2023-02-02T04:48:08;24.45;;;8.60;;
69569;SDS011;56781;42.292;23.146;2023-02-02T04:50:35;20.08;;;8.20;;
69569;SDS011;56781;42.292;23.146;2023-02-02T04:53:02;20.13;;;7.63;;
69569;SDS011;56781;42.292;23.146;2023-02-02T04:55:30;18.30;;;8.07;;
69569;SDS011;56781;42.292;23.146;2023-02-02T04:58:01;22.80;;;9.47;;
69569;SDS011;56781;42.292;23.146;2023-02-02T05:00:28;29.88;;;10.77;;
69569;SDS011;56781;42.292;23.146;2023-02-02T05:02:55;24.13;;;10.20;;
69569;SDS011;56781;42.292;23.146;2023-02-02T05:05:22;29.55;;;11.15;;
69569;SDS011;56781;42.292;23.146;2023-02-02T05:07:50;44.42;;;16.42;;
69569;SDS011;56781;42.292;23.146;2023-02-02T05:10:17;36.27;;;14.43;;
69569;SDS011;56781;42.292;23.146;2023-02-02T05:12:44;33.47;;;14.48;;
69569;SDS011;56781;42.292;23.146;2023-02-02T05:15:11;28.40;;;11.73;;
69569;SDS011;56781;42.292;23.146;2023-02-02T05:17:38;28.40;;;11.23;;
69569;SDS011;56781;42.292;23.146;2023-02-02T05:20:06;28.88;;;10.85;;
69569;SDS011;56781;42.292;23.146;2023-02-02T05:22:33;31.53;;;12.73;;
69569;SDS011;56781;42.292;23.146;2023-02-02T05:25:00;52.95;;;18.25;;
69569;SDS011;56781;42.292;23.146;2023-02-02T05:27:28;35.70;;;15.32;;
69569;SDS011;56781;42.292;23.146;2023-02-02T05:29:55;37.53;;;14.90;;
69569;SDS011;56781;42.292;23.146;2023-02-02T05:32:22;35.17;;;12.43;;
69569;SDS011;56781;42.292;23.146;2023-02-02T05:34:50;29.77;;;11.97;;
69569;SDS011;56781;42.292;23.146;2023-02-02T05:37:17;29.50;;;11.23;;
69569;SDS011;56781;42.292;23.146;2023-02-02T05:39:44;30.08;;;10.65;;
69569;SDS011;56781;42.292;23.146;2023-02-02T05:42:12;22.42;;;9.07;;
69569;SDS011;56781;42.292;23.146;2023-02-02T05:44:39;21.40;;;9.80;;
69569;SDS011;56781;42.292;23.146;2023-02-02T05:47:06;24.07;;;10.13;;
69569;SDS011;56781;42.292;23.146;2023-02-02T05:49:33;30.52;;;11.40;;
69569;SDS011;56781;42.292;23.146;2023-02-02T05:52:00;30.02;;;12.93;;
69569;SDS011;56781;42.292;23.146;2023-02-02T05:54:27;29.08;;;12.35;;
69569;SDS011;56781;42.292;23.146;2023-02-02T05:56:54;27.95;;;11.60;;
69569;SDS011;56781;42.292;23.146;2023-02-02T05:59:22;31.17;;;12.93;;
69569;SDS011;56781;42.292;23.146;2023-02-02T06:01:49;32.28;;;13.75;;
69569;SDS011;56781;42.292;23.146;2023-02-02T06:04:17;33.28;;;13.77;;
69569;SDS011;56781;42.292;23.146;2023-02-02T06:06:44;33.33;;;13.80;;
69569;SDS011;56781;42.292;23.146;2023-02-02T06:09:13;36.53;;;14.05;;
69569;SDS011;56781;42.292;23.146;2023-02-02T06:11:42;28.50;;;11.50;;
69569;SDS011;56781;42.292;23.146;2023-02-02T06:14:10;30.63;;;12.82;;
69569;SDS011;56781;42.292;23.146;2023-02-02T06:16:37;33.20;;;12.73;;
69569;SDS011;56781;42.292;23.146;2023-02-02T06:19:04;49.50;;;16.02;;
69569;SDS011;56781;42.292;23.146;2023-02-02T06:21:32;39.15;;;14.45;;
69569;SDS011;56781;42.292;23.146;2023-02-02T06:23:59;29.20;;;12.10;;
69569;SDS011;56781;42.292;23.146;2023-02-02T06:26:27;26.27;;;11.13;;
69569;SDS011;56781;42.292;23.146;2023-02-02T06:28:54;41.80;;;17.73;;
69569;SDS011;56781;42.292;23.146;2023-02-02T06:31:22;70.15;;;20.90;;
69569;SDS011;56781;42.292;23.146;2023-02-02T06:33:53;57.50;;;19.02;;
69569;SDS011;56781;42.292;23.146;2023-02-02T06:36:23;99.60;;;30.77;;
69569;SDS011;56781;42.292;23.146;2023-02-02T06:38:52;33.53;;;12.50;;
69569;SDS011;56781;42.292;23.146;2023-02-02T06:41:20;26.60;;;10.93;;
69569;SDS011;56781;42.292;23.146;2023-02-02T06:43:48;29.08;;;11.85;;
69569;SDS011;56781;42.292;23.146;2023-02-02T06:46:16;27.45;;;11.57;;
69569;SDS011;56781;42.292;23.146;2023-02-02T06:48:43;29.63;;;12.53;;
69569;SDS011;56781;42.292;23.146;2023-02-02T06:51:11;37.63;;;13.63;;
69569;SDS011;56781;42.292;23.146;2023-02-02T06:53:38;34.95;;;14.65;;
69569;SDS011;56781;42.292;23.146;2023-02-02T06:56:06;29.98;;;13.65;;
69569;SDS011;56781;42.292;23.146;2023-02-02T06:58:37;34.25;;;13.95;;
69569;SDS011;56781;42.292;23.146;2023-02-02T07:01:05;44.77;;;18.93;;
69569;SDS011;56781;42.292;23.146;2023-02-02T07:03:34;53.97;;;21.40;;
69569;SDS011;56781;42.292;23.146;2023-02-02T07:06:11;70.15;;;28.30;;
69569;SDS011;56781;42.292;23.146;2023-02-02T07:08:42;78.70;;;29.33;;
69569;SDS011;56781;42.292;23.146;2023-02-02T07:11:14;73.10;;;26.95;;
69569;SDS011;56781;42.292;23.146;2023-02-02T07:13:43;58.43;;;25.87;;
69569;SDS011;56781;42.292;23.146;2023-02-02T07:16:11;53.15;;;23.40;;
69569;SDS011;56781;42.292;23.146;2023-02-02T07:18:39;44.05;;;18.95;;
69569;SDS011;56781;42.292;23.146;2023-02-02T07:21:08;45.72;;;18.85;;
69569;SDS011;56781;42.292;23.146;2023-02-02T07:23:43;37.10;;;15.40;;
69569;SDS011;56781;42.292;23.146;2023-02-02T07:26:10;42.40;;;18.13;;
69569;SDS011;56781;42.292;23.146;2023-02-02T07:28:39;52.40;;;24.05;;
69569;SDS011;56781;42.292;23.146;2023-02-02T07:31:13;44.70;;;18.75;;
69569;SDS011;56781;42.292;23.146;2023-02-02T07:33:51;42.42;;;19.25;;
69569;SDS011;56781;42.292;23.146;2023-02-02T07:36:19;45.17;;;20.50;;
69569;SDS011;56781;42.292;23.146;2023-02-02T07:38:49;48.07;;;21.83;;
69569;SDS011;56781;42.292;23.146;2023-02-02T07:41:21;56.15;;;23.50;;
69569;SDS011;56781;42.292;23.146;2023-02-02T07:43:48;62.58;;;26.05;;
69569;SDS011;56781;42.292;23.146;2023-02-02T07:46:16;47.03;;;21.02;;
69569;SDS011;56781;42.292;23.146;2023-02-02T07:48:44;35.25;;;13.88;;
69569;SDS011;56781;42.292;23.146;2023-02-02T07:51:12;30.23;;;12.93;;
69569;SDS011;56781;42.292;23.146;2023-02-02T07:53:42;31.13;;;13.32;;
69569;SDS011;56781;42.292;23.146;2023-02-02T07:56:14;35.97;;;14.10;;
69569;SDS011;56781;42.292;23.146;2023-02-02T07:58:44;42.78;;;20.42;;
69569;SDS011;56781;42.292;23.146;2023-02-02T08:01:12;44.63;;;20.67;;
69569;SDS011;56781;42.292;23.146;2023-02-02T08:03:41;48.07;;;21.40;;
69569;SDS011;56781;42.292;23.146;2023-02-02T08:08:41;47.45;;;19.52;;
69569;SDS011;56781;42.292;23.146;2023-02-02T08:11:09;93.20;;;32.55;;
69569;SDS011;56781;42.292;23.146;2023-02-02T08:13:38;90.43;;;34.90;;
69569;SDS011;56781;42.292;23.146;2023-02-02T08:16:06;86.33;;;33.93;;
69569;SDS011;56781;42.292;23.146;2023-02-02T08:18:34;60.78;;;25.95;;
69569;SDS011;56781;42.292;23.146;2023-02-02T08:21:03;61.55;;;26.33;;
69569;SDS011;56781;42.292;23.146;2023-02-02T08:23:31;79.28;;;29.90;;
69569;SDS011;56781;42.292;23.146;2023-02-02T08:26:06;65.22;;;24.77;;
69569;SDS011;56781;42.292;23.146;2023-02-02T08:28:43;48.63;;;21.07;;
69569;SDS011;56781;42.292;23.146;2023-02-02T08:31:18;45.15;;;20.70;;
69569;SDS011;56781;42.292;23.146;2023-02-02T08:33:47;50.08;;;22.80;;
69569;SDS011;56781;42.292;23.146;2023-02-02T08:36:15;38.38;;;18.70;;
69569;SDS011;56781;42.292;23.146;2023-02-02T08:38:44;43.45;;;19.27;;
69569;SDS011;56781;42.292;23.146;2023-02-02T08:41:13;37.17;;;17.73;;
69569;SDS011;56781;42.292;23.146;2023-02-02T08:43:42;41.97;;;19.75;;
69569;SDS011;56781;42.292;23.146;2023-02-02T08:46:10;41.13;;;19.55;;
69569;SDS011;56781;42.292;23.146;2023-02-02T08:48:40;39.88;;;19.15;;
69569;SDS011;56781;42.292;23.146;2023-02-02T08:51:08;46.50;;;22.40;;
69569;SDS011;56781;42.292;23.146;2023-02-02T08:53:36;32.13;;;16.90;;
69569;SDS011;56781;42.292;23.146;2023-02-02T08:56:04;43.78;;;20.98;;
69569;SDS011;56781;42.292;23.146;2023-02-02T08:58:36;48.55;;;22.80;;
69569;SDS011;56781;42.292;23.146;2023-02-02T09:01:10;45.65;;;21.45;;
69569;SDS011;56781;42.292;23.146;2023-02-02T09:03:40;39.30;;;18.50;;
69569;SDS011;56781;42.292;23.146;2023-02-02T09:06:09;38.37;;;18.97;;
69569;SDS011;56781;42.292;23.146;2023-02-02T09:08:38;30.33;;;15.18;;
69569;SDS011;56781;42.292;23.146;2023-02-02T09:11:09;17.40;;;8.23;;
69569;SDS011;56781;42.292;23.146;2023-02-02T09:13:41;28.13;;;12.77;;
69569;SDS011;56781;42.292;23.146;2023-02-02T09:16:13;28.15;;;14.00;;
69569;SDS011;56781;42.292;23.146;2023-02-02T09:18:42;28.90;;;13.03;;
69569;SDS011;56781;42.292;23.146;2023-02-02T09:21:11;28.52;;;13.55;;
69569;SDS011;56781;42.292;23.146;2023-02-02T09:23:40;34.83;;;15.45;;
69569;SDS011;56781;42.292;23.146;2023-02-02T09:26:09;28.67;;;12.40;;
69569;SDS011;56781;42.292;23.146;2023-02-02T09:28:37;27.38;;;12.90;;
69569;SDS011;56781;42.292;23.146;2023-02-02T09:31:07;30.67;;;13.80;;
69569;SDS011;56781;42.292;23.146;2023-02-02T09:33:35;23.27;;;8.75;;
69569;SDS011;56781;42.292;23.146;2023-02-02T09:36:13;19.42;;;8.30;;
69569;SDS011;56781;42.292;23.146;2023-02-02T09:38:43;26.20;;;11.20;;
69569;SDS011;56781;42.292;23.146;2023-02-02T09:57:54;16.30;;;7.80;;
69569;SDS011;56781;42.292;23.146;2023-02-02T10:00:30;20.98;;;7.95;;
69569;SDS011;56781;42.292;23.146;2023-02-02T10:03:05;16.23;;;7.13;;
69569;SDS011;56781;42.292;23.146;2023-02-02T10:05:44;14.38;;;5.70;;
69569;SDS011;56781;42.292;23.146;2023-02-02T10:14:03;25.25;;;8.93;;
69569;SDS011;56781;42.292;23.146;2023-02-02T10:16:43;19.63;;;6.82;;
69569;SDS011;56781;42.292;23.146;2023-02-02T10:19:15;16.98;;;6.35;;
69569;SDS011;56781;42.292;23.146;2023-02-02T10:24:36;17.60;;;8.00;;
69569;SDS011;56781;42.292;23.146;2023-02-02T10:27:04;10.05;;;4.32;;
69569;SDS011;56781;42.292;23.146;2023-02-02T10:29:50;8.32;;;4.00;;
69569;SDS011;56781;42.292;23.146;2023-02-02T10:32:39;64.85;;;23.25;;
69569;SDS011;56781;42.292;23.146;2023-02-02T10:35:34;11.88;;;5.78;;
69569;SDS011;56781;42.292;23.146;2023-02-02T10:38:13;9.13;;;4.50;;
69569;SDS011;56781;42.292;23.146;2023-02-02T10:40:58;15.75;;;6.30;;
69569;SDS011;56781;42.292;23.146;2023-02-02T10:46:23;16.10;;;7.75;;
69569;SDS011;56781;42.292;23.146;2023-02-02T10:57:51;11.90;;;5.78;;
69569;SDS011;56781;42.292;23.146;2023-02-02T11:00:32;8.55;;;4.18;;
69569;SDS011;56781;42.292;23.146;2023-02-02T11:03:07;10.35;;;4.78;;
69569;SDS011;56781;42.292;23.146;2023-02-02T11:05:35;10.70;;;4.70;;
69569;SDS011;56781;42.292;23.146;2023-02-02T11:08:32;8.68;;;3.50;;
69569;SDS011;56781;42.292;23.146;2023-02-02T11:11:18;9.38;;;4.20;;
69569;SDS011;56781;42.292;23.146;2023-02-02T11:13:56;10.70;;;4.50;;
69569;SDS011;56781;42.292;23.146;2023-02-02T11:16:29;9.40;;;3.50;;
69569;SDS011;56781;42.292;23.146;2023-02-02T11:21:48;9.82;;;3.95;;
69569;SDS011;56781;42.292;23.146;2023-02-02T11:31:56;9.77;;;3.70;;
69569;SDS011;56781;42.292;23.146;2023-02-02T11:34:25;8.93;;;3.70;;
69569;SDS011;56781;42.292;23.146;2023-02-02T11:36:58;10.23;;;3.58;;
69569;SDS011;56781;42.292;23.146;2023-02-02T11:39:35;17.63;;;3.83;;
69569;SDS011;56781;42.292;23.146;2023-02-02T11:42:04;45.35;;;17.92;;
69569;SDS011;56781;42.292;23.146;2023-02-02T11:44:33;24.57;;;10.83;;
69569;SDS011;56781;42.292;23.146;2023-02-02T11:47:04;11.25;;;6.00;;
69569;SDS011;56781;42.292;23.146;2023-02-02T11:49:32;8.90;;;4.60;;
69569;SDS011;56781;42.292;23.146;2023-02-02T11:52:13;8.52;;;4.30;;
69569;SDS011;56781;42.292;23.146;2023-02-02T11:54:45;9.43;;;3.83;;
69569;SDS011;56781;42.292;23.146;2023-02-02T11:57:18;5.63;;;2.70;;
69569;SDS011;56781;42.292;23.146;2023-02-02T11:59:49;7.97;;;3.40;;
69569;SDS011;56781;42.292;23.146;2023-02-02T12:02:31;9.48;;;4.78;;
69569;SDS011;56781;42.292;23.146;2023-02-02T12:07:36;6.82;;;3.00;;
69569;SDS011;56781;42.292;23.146;2023-02-02T12:10:10;7.10;;;2.30;;
69569;SDS011;56781;42.292;23.146;2023-02-02T12:12:44;6.38;;;2.50;;
69569;SDS011;56781;42.292;23.146;2023-02-02T12:15:30;8.05;;;3.92;;
69569;SDS011;56781;42.292;23.146;2023-02-02T12:18:21;8.43;;;4.35;;
69569;SDS011;56781;42.292;23.146;2023-02-02T12:21:11;7.03;;;3.53;;
69569;SDS011;56781;42.292;23.146;2023-02-02T12:23:58;7.87;;;4.70;;
69569;SDS011;56781;42.292;23.146;2023-02-02T12:26:44;7.03;;;3.47;;
69569;SDS011;56781;42.292;23.146;2023-02-02T12:29:29;10.95;;;4.10;;
69569;SDS011;56781;42.292;23.146;2023-02-02T12:32:19;10.55;;;4.80;;
69569;SDS011;56781;42.292;23.146;2023-02-02T12:34:56;9.38;;;4.00;;
69569;SDS011;56781;42.292;23.146;2023-02-02T12:41:24;7.70;;;3.10;;
69569;SDS011;56781;42.292;23.146;2023-02-02T12:44:36;5.63;;;2.80;;
69569;SDS011;56781;42.292;23.146;2023-02-02T12:47:26;6.88;;;2.83;;
69569;SDS011;56781;42.292;23.146;2023-02-02T12:50:23;5.38;;;2.42;;
69569;SDS011;56781;42.292;23.146;2023-02-02T12:53:16;5.67;;;2.37;;
69569;SDS011;56781;42.292;23.146;2023-02-02T12:55:59;5.70;;;2.28;;
69569;SDS011;56781;42.292;23.146;2023-02-02T12:58:36;6.93;;;2.17;;
69569;SDS011;56781;42.292;23.146;2023-02-02T13:10:00;5.90;;;2.50;;
69569;SDS011;56781;42.292;23.146;2023-02-02T13:12:32;6.03;;;2.35;;
69569;SDS011;56781;42.292;23.146;2023-02-02T13:15:05;5.40;;;2.42;;
69569;SDS011;56781;42.292;23.146;2023-02-02T13:17:42;5.15;;;2.78;;
69569;SDS011;56781;42.292;23.146;2023-02-02T13:20:21;8.67;;;3.53;;
69569;SDS011;56781;42.292;23.146;2023-02-02T13:22:57;9.98;;;4.45;;
69569;SDS011;56781;42.292;23.146;2023-02-02T13:25:29;12.52;;;5.75;;
69569;SDS011;56781;42.292;23.146;2023-02-02T13:28:02;29.65;;;12.07;;
69569;SDS011;56781;42.292;23.146;2023-02-02T13:30:38;17.10;;;8.32;;
69569;SDS011;56781;42.292;23.146;2023-02-02T13:33:10;10.93;;;5.07;;
69569;SDS011;56781;42.292;23.146;2023-02-02T13:35:53;8.05;;;5.75;;
69569;SDS011;56781;42.292;23.146;2023-02-02T13:38:26;16.02;;;9.02;;
69569;SDS011;56781;42.292;23.146;2023-02-02T13:41:05;13.00;;;6.53;;
69569;SDS011;56781;42.292;23.146;2023-02-02T13:43:42;11.40;;;4.43;;
69569;SDS011;56781;42.292;23.146;2023-02-02T13:46:33;11.07;;;4.10;;
69569;SDS011;56781;42.292;23.146;2023-02-02T13:49:15;18.30;;;5.55;;
69569;SDS011;56781;42.292;23.146;2023-02-02T13:51:51;21.73;;;8.23;;
69569;SDS011;56781;42.292;23.146;2023-02-02T14:05:25;21.00;;;7.25;;
69569;SDS011;56781;42.292;23.146;2023-02-02T14:08:00;9.73;;;4.40;;
69569;SDS011;56781;42.292;23.146;2023-02-02T14:10:36;1.98;;;0.90;;
69569;SDS011;56781;42.292;23.146;2023-02-02T14:15:59;3.55;;;1.20;;
69569;SDS011;56781;42.292;23.146;2023-02-02T14:24:03;2.00;;;0.60;;
69569;SDS011;56781;42.292;23.146;2023-02-02T14:29:58;2.88;;;0.90;;
69569;SDS011;56781;42.292;23.146;2023-02-02T14:35:33;2.22;;;0.70;;
69569;SDS011;56781;42.292;23.146;2023-02-02T14:37:53;4.65;;;1.20;;
69569;SDS011;56781;42.292;23.146;2023-02-02T14:43:20;4.03;;;1.17;;
69569;SDS011;56781;42.292;23.146;2023-02-02T14:48:41;3.83;;;1.30;;
69569;SDS011;56781;42.292;23.146;2023-02-02T14:54:02;8.80;;;1.90;;
69569;SDS011;56781;42.292;23.146;2023-02-02T14:56:38;12.60;;;3.72;;
69569;SDS011;56781;42.292;23.146;2023-02-02T14:59:18;4.40;;;1.50;;
69569;SDS011;56781;42.292;23.146;2023-02-02T15:02:00;3.75;;;1.25;;
69569;SDS011;56781;42.292;23.146;2023-02-02T15:04:40;5.20;;;1.45;;
69569;SDS011;56781;42.292;23.146;2023-02-02T15:09:50;3.42;;;1.55;;
69569;SDS011;56781;42.292;23.146;2023-02-02T15:12:43;6.47;;;2.53;;
69569;SDS011;56781;42.292;23.146;2023-02-02T15:22:55;26.48;;;10.48;;
69569;SDS011;56781;42.292;23.146;2023-02-02T15:25:36;30.65;;;13.90;;
69569;SDS011;56781;42.292;23.146;2023-02-02T15:28:12;30.70;;;13.45;;
69569;SDS011;56781;42.292;23.146;2023-02-02T15:30:53;45.00;;;18.15;;
69569;SDS011;56781;42.292;23.146;2023-02-02T15:33:27;17.93;;;7.80;;
69569;SDS011;56781;42.292;23.146;2023-02-02T15:36:03;36.17;;;13.50;;
69569;SDS011;56781;42.292;23.146;2023-02-02T15:38:37;17.95;;;7.25;;
69569;SDS011;56781;42.292;23.146;2023-02-02T15:41:41;25.45;;;9.95;;
69569;SDS011;56781;42.292;23.146;2023-02-02T15:44:16;21.80;;;10.02;;
69569;SDS011;56781;42.292;23.146;2023-02-02T15:46:53;9.30;;;3.97;;
69569;SDS011;56781;42.292;23.146;2023-02-02T15:49:30;14.98;;;5.88;;
69569;SDS011;56781;42.292;23.146;2023-02-02T15:52:14;15.85;;;7.50;;
69569;SDS011;56781;42.292;23.146;2023-02-02T15:54:50;27.85;;;10.70;;
69569;SDS011;56781;42.292;23.146;2023-02-02T15:57:27;37.55;;;13.85;;
69569;SDS011;56781;42.292;23.146;2023-02-02T15:59:56;20.23;;;7.03;;
69569;SDS011;56781;42.292;23.146;2023-02-02T16:02:40;28.30;;;11.05;;
69569;SDS011;56781;42.292;23.146;2023-02-02T16:08:07;27.25;;;11.60;;
69569;SDS011;56781;42.292;23.146;2023-02-02T16:10:50;18.40;;;6.68;;
69569;SDS011;56781;42.292;23.146;2023-02-02T16:13:29;3.37;;;1.17;;
69569;SDS011;56781;42.292;23.146;2023-02-02T16:15:59;2.28;;;0.63;;
69569;SDS011;56781;42.292;23.146;2023-02-02T16:18:28;4.10;;;0.85;;
69569;SDS011;56781;42.292;23.146;2023-02-02T16:20:56;1.75;;;0.60;;
69569;SDS011;56781;42.292;23.146;2023-02-02T16:23:27;1.92;;;0.60;;
69569;SDS011;56781;42.292;23.146;2023-02-02T16:25:59;1.30;;;0.50;;
69569;SDS011;56781;42.292;23.146;2023-02-02T16:28:29;1.10;;;0.32;;
69569;SDS011;56781;42.292;23.146;2023-02-02T16:31:01;1.15;;;0.30;;
69569;SDS011;56781;42.292;23.146;2023-02-02T16:33:32;1.75;;;0.47;;
69569;SDS011;56781;42.292;23.146;2023-02-02T16:36:00;3.25;;;0.90;;
69569;SDS011;56781;42.292;23.146;2023-02-02T16:38:35;1.40;;;0.60;;
69569;SDS011;56781;42.292;23.146;2023-02-02T16:41:05;2.50;;;0.80;;
69569;SDS011;56781;42.292;23.146;2023-02-02T16:43:38;2.13;;;0.75;;
69569;SDS011;56781;42.292;23.146;2023-02-02T16:46:10;3.10;;;0.73;;
69569;SDS011;56781;42.292;23.146;2023-02-02T16:48:54;2.28;;;0.98;;
69569;SDS011;56781;42.292;23.146;2023-02-02T16:51:27;2.20;;;0.70;;
69569;SDS011;56781;42.292;23.146;2023-02-02T16:59:26;3.70;;;1.30;;
69569;SDS011;56781;42.292;23.146;2023-02-02T17:02:13;5.90;;;1.00;;
69569;SDS011;56781;42.292;23.146;2023-02-02T17:04:44;2.60;;;0.90;;
69569;SDS011;56781;42.292;23.146;2023-02-02T17:07:15;3.80;;;1.50;;
69569;SDS011;56781;42.292;23.146;2023-02-02T17:09:43;17.88;;;6.63;;